createdAt,value
2023-01-29T00:02:24.120Z,26.30
2023-01-29T00:04:51.080Z,25.90
2023-01-29T00:07:18.112Z,26.10
2023-01-29T00:09:44.918Z,25.20
2023-01-29T00:12:11.912Z,27.80
2023-01-29T00:14:38.859Z,26.83
2023-01-29T00:17:05.798Z,25.17
2023-01-29T00:19:32.774Z,24.17
2023-01-29T00:21:59.667Z,25.13
2023-01-29T00:24:26.727Z,25.23
2023-01-29T00:26:53.663Z,25.80
2023-01-29T00:29:22.077Z,27.40
2023-01-29T00:31:49.119Z,25.20
2023-01-29T00:34:16.360Z,24.88
2023-01-29T00:36:45.004Z,29.48
2023-01-29T00:39:12.862Z,25.27
2023-01-29T00:41:58.836Z,24.88
2023-01-29T00:44:44.651Z,26.25
2023-01-29T00:47:30.299Z,23.27
2023-01-29T00:49:57.587Z,24.25
2023-01-29T00:52:24.500Z,24.63
2023-01-29T00:54:56.686Z,24.55
2023-01-29T00:57:25.958Z,24.95
2023-01-29T00:59:53.949Z,25.10
2023-01-29T01:02:53.925Z,24.40
2023-01-29T01:05:21.130Z,23.50
2023-01-29T01:07:52.750Z,24.08
2023-01-29T01:10:29.379Z,22.90
2023-01-29T01:13:03.184Z,20.40
2023-01-29T01:15:36.193Z,23.38
2023-01-29T01:18:04.656Z,20.27
2023-01-29T01:20:34.568Z,24.17
2023-01-29T01:23:01.866Z,23.50
2023-01-29T01:25:28.886Z,23.23
2023-01-29T01:27:57.582Z,21.38
2023-01-29T01:30:25.843Z,20.55
2023-01-29T01:32:53.391Z,21.58
2023-01-29T01:35:20.536Z,18.83
2023-01-29T01:37:47.484Z,19.05
2023-01-29T01:40:18.514Z,23.05
2023-01-29T01:42:49.325Z,20.75
2023-01-29T01:45:24.720Z,23.60
2023-01-29T01:48:01.568Z,19.83
2023-01-29T01:50:38.213Z,17.15
2023-01-29T01:53:11.534Z,21.60
2023-01-29T01:55:44.335Z,18.83
2023-01-29T01:58:18.375Z,20.90
2023-01-29T02:00:45.486Z,21.70
2023-01-29T02:03:31.737Z,16.33
2023-01-29T02:06:18.756Z,16.65
2023-01-29T02:09:15.298Z,16.90
2023-01-29T02:11:42.700Z,19.40
2023-01-29T02:14:09.863Z,15.68
2023-01-29T02:16:38.056Z,17.65
2023-01-29T02:19:14.723Z,16.50
2023-01-29T02:22:32.617Z,14.90
2023-01-29T02:25:53.417Z,27.20
2023-01-29T02:28:41.636Z,14.75
2023-01-29T02:31:29.737Z,16.02
2023-01-29T02:34:17.617Z,14.02
2023-01-29T02:36:50.047Z,15.93
2023-01-29T02:39:50.371Z,15.35
2023-01-29T02:42:27.249Z,17.08
2023-01-29T02:45:05.195Z,14.30
2023-01-29T02:47:42.874Z,14.10
2023-01-29T02:50:12.916Z,14.38
2023-01-29T02:53:05.169Z,13.20
2023-01-29T02:56:00.538Z,13.00
2023-01-29T02:58:28.221Z,13.35
2023-01-29T03:01:00.238Z,14.30
2023-01-29T03:03:39.774Z,15.10
2023-01-29T03:06:24.726Z,15.55
2023-01-29T03:09:00.567Z,14.98
2023-01-29T03:11:35.288Z,13.73
2023-01-29T03:14:08.643Z,13.50
2023-01-29T03:16:52.049Z,14.90
2023-01-29T03:19:39.799Z,17.40
2023-01-29T03:22:16.700Z,16.05
2023-01-29T03:25:09.972Z,15.38
2023-01-29T03:28:23.282Z,13.75
2023-01-29T03:31:16.147Z,15.50
2023-01-29T03:34:04.631Z,14.95
2023-01-29T03:36:45.503Z,12.68
2023-01-29T03:39:15.408Z,6.13
2023-01-29T03:41:56.021Z,6.03
2023-01-29T03:44:49.055Z,7.53
2023-01-29T03:47:37.114Z,7.85
2023-01-29T03:50:25.857Z,6.70
2023-01-29T03:53:07.161Z,7.93
2023-01-29T03:55:43.590Z,9.10
2023-01-29T03:58:49.341Z,10.18
2023-01-29T04:01:24.081Z,12.20
2023-01-29T04:04:03.373Z,11.88
2023-01-29T04:06:35.979Z,12.82
2023-01-29T04:09:17.414Z,13.25
2023-01-29T04:11:50.506Z,7.32
2023-01-29T04:14:18.329Z,7.15
2023-01-29T04:16:51.515Z,7.85
2023-01-29T04:19:34.811Z,7.57
2023-01-29T04:22:18.726Z,7.07
2023-01-29T04:24:47.912Z,7.00
2023-01-29T04:27:34.973Z,5.60
2023-01-29T04:30:39.282Z,6.07
2023-01-29T04:33:42.584Z,6.13
2023-01-29T04:36:26.940Z,7.07
2023-01-29T04:39:15.863Z,6.00
2023-01-29T04:42:05.054Z,6.05
2023-01-29T04:44:34.659Z,6.10
2023-01-29T04:47:22.749Z,5.57
2023-01-29T04:50:10.581Z,5.85
2023-01-29T04:52:46.862Z,5.95
2023-01-29T04:55:38.859Z,6.00
2023-01-29T04:58:14.636Z,6.25
2023-01-29T05:00:44.229Z,6.22
2023-01-29T05:03:14.694Z,6.38
2023-01-29T05:05:44.769Z,8.18
2023-01-29T05:08:14.524Z,7.38
2023-01-29T05:10:42.541Z,8.07
2023-01-29T05:13:13.633Z,7.13
2023-01-29T05:15:56.378Z,6.82
2023-01-29T05:18:23.632Z,6.65
2023-01-29T05:20:50.598Z,8.57
2023-01-29T05:23:19.568Z,8.63
2023-01-29T05:25:48.479Z,7.45
2023-01-29T05:28:19.064Z,7.93
2023-01-29T05:30:54.682Z,9.40
2023-01-29T05:33:27.576Z,7.15
2023-01-29T05:35:55.731Z,6.93
2023-01-29T05:38:23.416Z,8.43
2023-01-29T05:40:50.745Z,6.57
2023-01-29T05:43:20.111Z,8.48
2023-01-29T05:45:59.416Z,7.65
2023-01-29T05:48:29.020Z,7.50
2023-01-29T05:51:05.282Z,8.13
2023-01-29T05:53:33.689Z,7.70
2023-01-29T05:56:05.198Z,7.95
2023-01-29T05:58:33.481Z,8.70
2023-01-29T06:01:19.908Z,7.93
2023-01-29T06:03:47.778Z,7.38
2023-01-29T06:06:15.310Z,8.45
2023-01-29T06:08:42.304Z,6.18
2023-01-29T06:11:11.471Z,6.90
2023-01-29T06:13:39.076Z,6.82
2023-01-29T06:16:10.362Z,8.85
2023-01-29T06:18:38.456Z,7.20
2023-01-29T06:21:07.392Z,6.90
2023-01-29T06:23:34.685Z,7.00
2023-01-29T06:26:06.471Z,6.20
2023-01-29T06:28:33.643Z,6.80
2023-01-29T06:31:21.007Z,6.68
2023-01-29T06:33:49.412Z,6.20
2023-01-29T06:36:16.315Z,7.03
2023-01-29T06:38:43.205Z,6.55
2023-01-29T06:41:12.809Z,5.85
2023-01-29T06:43:40.146Z,6.68
2023-01-29T06:46:08.437Z,7.13
2023-01-29T06:48:35.642Z,5.90
2023-01-29T06:51:04.394Z,5.20
2023-01-29T06:53:31.582Z,6.38
2023-01-29T06:55:58.454Z,6.07
2023-01-29T06:58:25.348Z,7.35
2023-01-29T07:00:53.033Z,4.85
2023-01-29T07:03:19.987Z,5.15
2023-01-29T07:05:53.899Z,6.22
2023-01-29T07:08:22.706Z,5.60
2023-01-29T07:10:50.200Z,8.13
2023-01-29T07:13:17.170Z,6.57
2023-01-29T07:15:44.635Z,5.80
2023-01-29T07:18:14.889Z,5.57
2023-01-29T07:20:43.171Z,6.35
2023-01-29T07:23:13.970Z,5.38
2023-01-29T07:25:41.676Z,4.78
2023-01-29T07:28:08.621Z,5.03
2023-01-29T07:30:35.839Z,4.30
2023-01-29T07:33:08.290Z,5.47
2023-01-29T07:35:40.799Z,4.28
2023-01-29T07:38:09.079Z,5.63
2023-01-29T07:40:36.585Z,4.88
2023-01-29T07:43:06.192Z,5.75
2023-01-29T07:45:36.584Z,5.55
2023-01-29T07:48:07.937Z,5.25
2023-01-29T07:50:35.812Z,5.78
2023-01-29T07:53:03.096Z,4.93
2023-01-29T07:55:30.367Z,8.48
2023-01-29T07:58:03.369Z,5.80
2023-01-29T08:00:31.816Z,4.80
2023-01-29T08:03:06.572Z,4.25
2023-01-29T08:05:34.319Z,5.88
2023-01-29T08:08:06.868Z,7.20
2023-01-29T08:10:38.732Z,5.72
2023-01-29T08:13:06.897Z,5.60
2023-01-29T08:15:35.557Z,5.10
2023-01-29T08:18:04.017Z,5.28
2023-01-29T08:20:31.061Z,5.70
2023-01-29T08:23:06.501Z,6.60
2023-01-29T08:25:33.890Z,8.20
2023-01-29T08:28:01.724Z,5.65
2023-01-29T08:30:31.934Z,5.10
2023-01-29T08:32:59.221Z,5.47
2023-01-29T08:35:26.469Z,5.30
2023-01-29T08:38:02.121Z,5.13
2023-01-29T08:40:31.910Z,5.15
2023-01-29T08:43:06.185Z,5.72
2023-01-29T08:45:35.615Z,9.75
2023-01-29T08:48:02.657Z,8.43
2023-01-29T08:50:33.034Z,9.10
2023-01-29T08:53:01.637Z,5.88
2023-01-29T08:55:29.089Z,7.15
2023-01-29T08:57:57.447Z,7.47
2023-01-29T09:00:24.710Z,5.53
2023-01-29T09:02:52.131Z,5.10
2023-01-29T09:05:19.684Z,6.55
2023-01-29T09:07:46.926Z,28.02
2023-01-29T09:10:13.894Z,10.90
2023-01-29T09:12:40.783Z,9.32
2023-01-29T09:15:10.434Z,8.07
2023-01-29T09:17:37.284Z,5.70
2023-01-29T09:20:06.165Z,5.85
2023-01-29T09:22:53.924Z,5.57
2023-01-29T09:25:44.426Z,6.63
2023-01-29T09:28:11.757Z,5.00
2023-01-29T09:30:38.784Z,5.13
2023-01-29T09:33:06.648Z,5.97
2023-01-29T09:35:34.495Z,5.65
2023-01-29T09:38:01.595Z,6.95
2023-01-29T09:40:43.090Z,6.38
2023-01-29T09:43:20.421Z,17.58
2023-01-29T09:46:02.008Z,16.15
2023-01-29T09:48:32.400Z,6.78
2023-01-29T09:51:03.644Z,6.15
2023-01-29T09:53:50.540Z,8.10
2023-01-29T09:56:21.903Z,5.60
2023-01-29T09:58:48.941Z,4.68
2023-01-29T10:01:29.744Z,7.55
2023-01-29T10:04:23.886Z,7.95
2023-01-29T10:07:02.512Z,6.63
2023-01-29T10:09:38.391Z,6.57
2023-01-29T10:12:22.669Z,5.80
2023-01-29T10:15:08.848Z,5.28
2023-01-29T10:17:42.052Z,6.53
2023-01-29T10:20:37.108Z,6.30
2023-01-29T10:23:18.487Z,7.68
2023-01-29T10:25:47.326Z,20.48
2023-01-29T10:28:47.665Z,6.32
2023-01-29T10:31:20.752Z,5.18
2023-01-29T10:34:03.778Z,4.80
2023-01-29T10:36:48.431Z,5.22
2023-01-29T10:39:23.231Z,5.53
2023-01-29T10:42:19.763Z,6.80
2023-01-29T10:45:01.669Z,5.03
2023-01-29T10:47:37.956Z,5.18
2023-01-29T10:50:24.303Z,7.53
2023-01-29T10:53:05.516Z,5.30
2023-01-29T10:56:21.767Z,5.95
2023-01-29T10:58:56.937Z,6.95
2023-01-29T11:01:24.230Z,7.82
2023-01-29T11:04:01.825Z,7.60
2023-01-29T11:06:34.332Z,7.25
2023-01-29T11:12:13.100Z,6.70
2023-01-29T11:14:45.309Z,5.55
2023-01-29T11:17:17.897Z,6.32
2023-01-29T11:19:47.344Z,6.47
2023-01-29T11:22:20.077Z,6.97
2023-01-29T11:25:07.600Z,6.43
2023-01-29T11:27:39.076Z,6.40
2023-01-29T11:30:06.565Z,5.40
2023-01-29T11:32:35.250Z,6.85
2023-01-29T11:35:08.022Z,5.63
2023-01-29T11:37:40.151Z,6.72
2023-01-29T11:40:19.314Z,7.65
2023-01-29T11:42:51.641Z,6.03
2023-01-29T11:45:29.880Z,6.47
2023-01-29T11:47:58.266Z,5.35
2023-01-29T11:50:28.238Z,5.75
2023-01-29T11:52:55.559Z,4.97
2023-01-29T11:55:25.939Z,6.57
2023-01-29T11:58:13.316Z,6.35
2023-01-29T12:00:46.228Z,7.07
2023-01-29T12:03:13.013Z,6.78
2023-01-29T12:05:52.438Z,5.97
2023-01-29T12:08:21.655Z,6.15
2023-01-29T12:10:48.672Z,6.07
2023-01-29T12:13:15.879Z,9.02
2023-01-29T12:15:43.624Z,7.47
2023-01-29T12:18:30.361Z,7.07
2023-01-29T12:21:03.759Z,7.43
2023-01-29T12:23:58.077Z,7.68
2023-01-29T12:26:36.090Z,7.15
2023-01-29T12:29:28.147Z,8.05
2023-01-29T12:31:57.825Z,7.53
2023-01-29T12:34:39.314Z,6.45
2023-01-29T12:37:35.730Z,8.65
2023-01-29T12:40:03.431Z,8.23
2023-01-29T12:42:31.933Z,7.03
2023-01-29T12:45:01.617Z,8.25
2023-01-29T12:47:28.480Z,8.35
2023-01-29T12:50:03.377Z,7.15
2023-01-29T12:52:47.495Z,8.07
2023-01-29T12:55:24.258Z,8.02
2023-01-29T12:57:51.131Z,8.38
2023-01-29T13:00:24.542Z,8.60
2023-01-29T13:03:29.376Z,7.28
2023-01-29T13:06:30.638Z,6.68
2023-01-29T13:09:06.682Z,6.28
2023-01-29T13:11:41.066Z,9.07
2023-01-29T13:14:23.068Z,7.82
2023-01-29T13:16:55.519Z,6.55
2023-01-29T13:19:28.268Z,13.52
2023-01-29T13:21:59.206Z,9.65
2023-01-29T13:24:31.421Z,9.90
2023-01-29T13:26:58.457Z,7.57
2023-01-29T13:29:29.218Z,8.77
2023-01-29T13:32:01.056Z,11.77
2023-01-29T13:34:43.799Z,10.65
2023-01-29T13:37:17.548Z,11.20
2023-01-29T13:39:53.098Z,10.07
2023-01-29T13:42:21.495Z,9.50
2023-01-29T13:44:54.376Z,10.00
2023-01-29T13:47:30.115Z,14.00
2023-01-29T13:50:19.160Z,10.45
2023-01-29T13:52:52.431Z,11.63
2023-01-29T13:55:20.411Z,12.15
2023-01-29T13:57:47.258Z,12.25
2023-01-29T14:00:24.406Z,12.23
2023-01-29T14:02:59.966Z,13.50
2023-01-29T14:05:29.696Z,11.10
2023-01-29T14:08:03.633Z,13.13
2023-01-29T14:10:35.352Z,12.18
2023-01-29T14:13:05.272Z,12.10
2023-01-29T14:15:34.793Z,11.05
2023-01-29T14:18:22.295Z,23.52
2023-01-29T14:21:02.623Z,12.43
2023-01-29T14:23:51.437Z,13.32
2023-01-29T14:26:45.458Z,14.50
2023-01-29T14:29:14.442Z,12.20
2023-01-29T14:32:00.405Z,16.13
2023-01-29T14:34:33.375Z,16.75
2023-01-29T14:37:19.954Z,14.02
2023-01-29T14:39:52.495Z,41.05
2023-01-29T14:42:37.549Z,13.70
2023-01-29T14:45:27.910Z,15.57
2023-01-29T14:48:00.626Z,17.38
2023-01-29T14:50:33.123Z,12.32
2023-01-29T14:53:14.966Z,20.80
2023-01-29T14:55:58.109Z,12.68
2023-01-29T14:58:37.175Z,20.52
2023-01-29T15:01:07.685Z,17.52
2023-01-29T15:03:55.812Z,15.77
2023-01-29T15:06:47.909Z,17.45
2023-01-29T15:09:22.058Z,13.30
2023-01-29T15:12:11.854Z,13.30
2023-01-29T15:14:47.741Z,15.68
2023-01-29T15:17:29.889Z,13.32
2023-01-29T15:19:57.816Z,13.25
2023-01-29T15:22:29.921Z,12.60
2023-01-29T15:25:13.136Z,12.85
2023-01-29T15:27:44.543Z,11.90
2023-01-29T15:30:18.035Z,14.48
2023-01-29T15:32:46.275Z,14.70
2023-01-29T15:35:25.947Z,15.02
2023-01-29T15:38:31.585Z,16.27
2023-01-29T15:41:01.202Z,15.98
2023-01-29T15:43:30.807Z,15.68
2023-01-29T15:46:16.414Z,13.13
2023-01-29T15:48:44.606Z,15.10
2023-01-29T15:51:16.938Z,14.32
2023-01-29T15:53:54.231Z,13.32
2023-01-29T15:56:31.001Z,17.15
2023-01-29T15:59:00.793Z,15.63
2023-01-29T16:01:28.734Z,13.57
2023-01-29T16:03:59.438Z,16.20
2023-01-29T16:06:27.776Z,16.33
2023-01-29T16:08:55.440Z,14.52
2023-01-29T16:11:22.717Z,16.60
2023-01-29T16:13:51.047Z,16.33
2023-01-29T16:16:25.325Z,19.40
2023-01-29T16:18:59.866Z,23.27
2023-01-29T16:21:33.125Z,17.63
2023-01-29T16:24:09.788Z,15.65
2023-01-29T16:26:39.797Z,17.90
2023-01-29T16:29:19.179Z,19.58
2023-01-29T16:31:48.484Z,16.25
2023-01-29T16:34:29.171Z,20.35
2023-01-29T16:36:57.559Z,17.52
2023-01-29T16:39:27.108Z,17.70
2023-01-29T16:42:13.020Z,17.13
2023-01-29T16:44:45.265Z,18.60
2023-01-29T16:47:14.008Z,17.60
2023-01-29T16:49:43.951Z,17.67
2023-01-29T16:52:24.351Z,20.55
2023-01-29T16:54:51.382Z,24.35
2023-01-29T16:57:32.549Z,23.17
2023-01-29T17:00:03.419Z,20.67
2023-01-29T17:02:38.160Z,26.60
2023-01-29T17:05:23.077Z,21.80
2023-01-29T17:07:53.708Z,28.70
2023-01-29T17:10:22.063Z,24.73
2023-01-29T17:13:06.463Z,25.80
2023-01-29T17:15:47.225Z,26.13
2023-01-29T17:18:25.298Z,23.40
2023-01-29T17:20:55.113Z,23.30
2023-01-29T17:23:22.562Z,26.30
2023-01-29T17:25:49.872Z,26.65
2023-01-29T17:28:18.242Z,25.92
2023-01-29T17:30:56.682Z,25.17
2023-01-29T17:33:27.326Z,35.78
2023-01-29T17:35:54.209Z,33.92
2023-01-29T17:38:26.489Z,26.85
2023-01-29T17:40:58.573Z,26.80
2023-01-29T17:43:25.545Z,25.23
2023-01-29T17:45:52.419Z,26.70
2023-01-29T17:48:28.600Z,30.02
2023-01-29T17:51:01.876Z,27.67
2023-01-29T17:53:44.151Z,61.38
2023-01-29T17:56:17.003Z,36.33
2023-01-29T17:58:43.950Z,27.55
2023-01-29T18:01:10.857Z,30.98
2023-01-29T18:03:38.012Z,30.02
2023-01-29T18:06:08.487Z,32.67
2023-01-29T18:08:37.995Z,35.00
2023-01-29T18:11:05.640Z,30.73
2023-01-29T18:13:36.271Z,33.47
2023-01-29T18:16:03.458Z,34.35
2023-01-29T18:18:30.493Z,30.58
2023-01-29T18:20:57.513Z,25.63
2023-01-29T18:23:24.601Z,30.83
2023-01-29T18:25:52.878Z,23.17
2023-01-29T18:28:19.908Z,27.20
2023-01-29T18:30:47.641Z,29.30
2023-01-29T18:33:15.835Z,29.30
2023-01-29T18:35:48.127Z,28.92
2023-01-29T18:38:15.871Z,32.38
2023-01-29T18:40:43.122Z,37.35
2023-01-29T18:43:10.104Z,33.15
2023-01-29T18:45:37.070Z,33.58
2023-01-29T18:48:04.879Z,35.05
2023-01-29T18:50:32.351Z,39.25
2023-01-29T18:52:59.531Z,37.72
2023-01-29T18:55:26.763Z,39.65
2023-01-29T18:58:26.830Z,35.22
2023-01-29T19:00:43.971Z,34.50
2023-01-29T19:03:11.147Z,40.25
2023-01-29T19:05:38.307Z,30.60
2023-01-29T19:08:05.897Z,30.13
2023-01-29T19:10:33.388Z,28.77
2023-01-29T19:13:00.424Z,30.88
2023-01-29T19:15:27.242Z,31.15
2023-01-29T19:17:54.393Z,30.17
2023-01-29T19:20:21.612Z,30.05
2023-01-29T19:22:48.675Z,34.45
2023-01-29T19:25:16.490Z,34.13
2023-01-29T19:27:43.818Z,30.42
2023-01-29T19:30:12.870Z,31.65
2023-01-29T19:32:40.815Z,33.63
2023-01-29T19:35:08.210Z,32.00
2023-01-29T19:37:35.047Z,35.42
2023-01-29T19:40:01.892Z,31.30
2023-01-29T19:42:28.790Z,28.55
2023-01-29T19:44:55.717Z,29.05
2023-01-29T19:47:22.668Z,31.98
2023-01-29T19:49:50.301Z,29.67
2023-01-29T19:52:49.844Z,26.40
2023-01-29T19:55:18.434Z,27.70
2023-01-29T19:57:45.769Z,30.58
2023-01-29T20:00:14.841Z,29.63
2023-01-29T20:02:41.662Z,30.15
2023-01-29T20:05:11.965Z,31.02
2023-01-29T20:07:42.510Z,30.30
2023-01-29T20:10:16.926Z,29.08
2023-01-29T20:12:45.134Z,33.13
2023-01-29T20:15:13.651Z,29.90
2023-01-29T20:17:40.584Z,28.27
2023-01-29T20:20:08.702Z,28.95
2023-01-29T20:22:35.711Z,35.42
2023-01-29T20:25:02.701Z,32.72
2023-01-29T20:27:29.580Z,31.02
2023-01-29T20:29:56.444Z,31.60
2023-01-29T20:32:23.306Z,32.50
2023-01-29T20:34:52.220Z,36.92
2023-01-29T20:37:19.667Z,30.23
2023-01-29T20:39:47.224Z,36.08
2023-01-29T20:42:14.215Z,30.15
2023-01-29T20:44:41.977Z,30.90
2023-01-29T20:47:09.237Z,33.67
2023-01-29T20:49:36.228Z,33.47
2023-01-29T20:52:03.231Z,31.70
2023-01-29T20:54:33.242Z,32.55
2023-01-29T20:57:00.338Z,34.55
2023-01-29T20:59:29.024Z,32.88
2023-01-29T21:01:56.022Z,30.13
2023-01-29T21:04:23.180Z,33.28
2023-01-29T21:06:50.022Z,34.63
2023-01-29T21:09:17.416Z,32.60
2023-01-29T21:11:46.955Z,34.88
2023-01-29T21:14:14.599Z,34.35
2023-01-29T21:16:41.473Z,34.58
2023-01-29T21:19:09.825Z,35.13
2023-01-29T21:21:36.674Z,38.92
2023-01-29T21:24:03.805Z,41.10
2023-01-29T21:26:30.898Z,38.78
2023-01-29T21:28:57.755Z,41.50
2023-01-29T21:31:24.803Z,40.42
2023-01-29T21:33:51.760Z,40.97
2023-01-29T21:36:18.895Z,38.40
2023-01-29T21:38:46.001Z,35.58
2023-01-29T21:41:12.983Z,36.35
2023-01-29T21:43:40.635Z,36.33
2023-01-29T21:46:14.158Z,39.78
2023-01-29T21:48:41.105Z,39.78
2023-01-29T21:51:08.554Z,37.22
2023-01-29T21:53:36.768Z,36.60
2023-01-29T21:56:05.428Z,38.63
2023-01-29T21:58:33.078Z,38.80
2023-01-29T22:01:35.857Z,41.45
2023-01-29T22:03:47.718Z,37.97
2023-01-29T22:06:15.335Z,39.50
2023-01-29T22:08:42.460Z,38.53
2023-01-29T22:11:10.139Z,40.10
2023-01-29T22:13:37.836Z,40.47
2023-01-29T22:16:06.004Z,39.30
2023-01-29T22:18:33.650Z,43.85
2023-01-29T22:21:02.990Z,39.30
2023-01-29T22:23:32.391Z,38.78
2023-01-29T22:26:04.285Z,39.83
2023-01-29T22:28:31.210Z,38.10
2023-01-29T22:31:02.350Z,37.60
2023-01-29T22:33:29.506Z,36.60
2023-01-29T22:35:57.094Z,38.97
2023-01-29T22:38:24.176Z,41.78
2023-01-29T22:40:54.930Z,37.22
2023-01-29T22:43:22.551Z,38.40
2023-01-29T22:45:49.422Z,41.45
2023-01-29T22:48:16.436Z,37.60
2023-01-29T22:50:53.872Z,41.42
2023-01-29T22:53:20.985Z,37.55
2023-01-29T22:55:55.649Z,40.20
2023-01-29T22:58:22.747Z,39.78
2023-01-29T23:00:52.522Z,40.05
2023-01-29T23:03:19.474Z,38.28
2023-01-29T23:05:46.280Z,43.22
2023-01-29T23:08:13.866Z,40.75
2023-01-29T23:10:40.903Z,38.22
2023-01-29T23:13:07.852Z,43.78
2023-01-29T23:15:34.855Z,41.10
2023-01-29T23:18:02.171Z,42.70
2023-01-29T23:20:29.042Z,39.28
2023-01-29T23:22:55.996Z,39.85
2023-01-29T23:25:43.274Z,42.40
2023-01-29T23:28:10.257Z,38.58
2023-01-29T23:30:37.712Z,40.67
2023-01-29T23:33:04.820Z,40.38
2023-01-29T23:35:32.734Z,42.60
2023-01-29T23:38:00.157Z,39.45
2023-01-29T23:40:26.975Z,41.85
2023-01-29T23:42:53.786Z,43.70
2023-01-29T23:45:20.641Z,43.72
2023-01-29T23:47:47.541Z,40.58
2023-01-29T23:50:14.468Z,39.03
2023-01-29T23:52:41.429Z,38.15
2023-01-29T23:55:08.475Z,39.10
2023-01-29T23:57:35.535Z,36.13
